Time;durP1;ratioP1;P1;durP2;ratioP2;P2;SDS_P1;SDS_P2;PMS_P1;PMS_P2;Temp;Humidity;BMP_temperature;BMP_pressure;BME280_temperature;BME280_humidity;BME280_pressure;Samples;Min_cycle;Max_cycle;Signal;HPM_P1;HPM_P2
2022/07/22 00:02:16;;;;;;;7.03;4.00;;;20.90;99.90;22.30;97113.00;;;;5118780;27;20202;-66
2022/07/22 00:05:10;;;;;;;4.67;4.20;;;21.00;99.90;22.50;97103.00;;;;5127004;27;20206;-66
2022/07/22 00:07:58;;;;;;;5.20;3.93;;;20.90;99.90;22.70;97108.00;;;;5113811;27;20704;-66
2022/07/22 00:10:47;;;;;;;4.57;3.80;;;21.00;99.90;22.70;97117.00;;;;5117199;27;20230;-66
2022/07/22 00:13:36;;;;;;;4.03;3.73;;;21.10;99.90;22.20;97109.00;;;;5112101;27;20221;-66
2022/07/22 00:16:25;;;;;;;5.80;4.70;;;21.00;99.90;22.10;97117.00;;;;5112764;27;20198;-65
2022/07/22 00:19:14;;;;;;;5.27;4.50;;;20.90;99.90;22.10;97112.00;;;;5118462;27;20207;-66
2022/07/22 00:22:04;;;;;;;5.17;4.73;;;20.90;99.90;22.00;97105.00;;;;5129564;27;20201;-66
2022/07/22 00:24:53;;;;;;;5.53;4.60;;;20.80;99.90;22.20;97109.00;;;;5112910;27;20233;-67
2022/07/22 00:27:41;;;;;;;8.47;4.90;;;20.70;99.90;22.10;97111.00;;;;5113314;27;20218;-66
2022/07/22 00:30:30;;;;;;;6.43;4.83;;;20.70;99.90;22.00;97097.00;;;;5114079;27;20203;-66
2022/07/22 00:33:19;;;;;;;13.37;5.97;;;20.70;99.90;21.60;97102.00;;;;5112339;27;20205;-65
2022/07/22 00:36:09;;;;;;;4.83;4.43;;;20.60;99.90;21.40;97106.00;;;;5116092;27;20202;-67
2022/07/22 00:38:59;;;;;;;6.70;4.27;;;20.40;99.90;21.50;97108.00;;;;5111197;27;20210;-67
2022/07/22 00:41:48;;;;;;;6.13;4.63;;;20.30;99.90;21.90;97111.00;;;;5111659;27;20681;-66
2022/07/22 00:44:36;;;;;;;4.97;4.57;;;20.30;99.90;21.80;97108.00;;;;5123195;27;20202;-66
2022/07/22 00:47:25;;;;;;;9.40;4.77;;;20.30;99.90;21.60;97115.00;;;;5109782;27;20214;-67
2022/07/22 00:50:14;;;;;;;7.87;4.70;;;20.30;99.90;21.40;97110.00;;;;5112681;27;20194;-67
2022/07/22 00:53:04;;;;;;;5.83;4.97;;;20.20;99.90;21.00;97112.00;;;;5115333;27;20577;-67
2022/07/22 00:55:54;;;;;;;6.00;5.40;;;20.10;99.90;21.20;97116.00;;;;5122240;27;20209;-69
2022/07/22 00:58:44;;;;;;;4.97;4.57;;;20.10;99.90;20.70;97106.00;;;;5108416;27;20301;-66
2022/07/22 01:01:33;;;;;;;5.73;5.00;;;19.90;99.90;21.10;97117.00;;;;5119250;27;20201;-66
2022/07/22 01:04:22;;;;;;;5.70;5.20;;;19.90;99.90;21.50;97115.00;;;;5110721;27;20209;-66
2022/07/22 01:07:11;;;;;;;6.70;5.17;;;19.90;99.90;21.50;97112.00;;;;5121063;27;20234;-66
2022/07/22 01:09:59;;;;;;;6.20;5.60;;;19.90;99.90;21.40;97124.00;;;;5112501;27;20195;-67
2022/07/22 01:12:49;;;;;;;7.90;4.90;;;19.90;99.90;21.50;97116.00;;;;5112246;27;20573;-67
2022/07/22 01:15:38;;;;;;;5.53;5.13;;;20.00;99.90;21.50;97104.00;;;;5112554;27;20199;-65
2022/07/22 01:18:27;;;;;;;6.43;5.03;;;20.00;99.90;21.10;97112.00;;;;5111482;27;20218;-66
2022/07/22 01:21:18;;;;;;;7.23;6.50;;;20.00;99.90;20.30;97114.00;;;;5117668;27;20221;-66
2022/07/22 01:24:07;;;;;;;6.60;5.73;;;19.80;99.90;20.70;97114.00;;;;5107352;28;20206;-66
2022/07/22 01:26:56;;;;;;;9.17;5.53;;;19.60;99.90;20.70;97115.00;;;;5111433;27;20234;-68
2022/07/22 01:29:45;;;;;;;6.27;5.67;;;19.60;99.90;21.10;97114.00;;;;5111042;27;20210;-66
2022/07/22 01:32:34;;;;;;;6.83;6.13;;;19.60;99.90;21.10;97114.00;;;;5110840;27;20210;-68
2022/07/22 01:35:23;;;;;;;7.07;6.27;;;19.60;99.90;20.80;97111.00;;;;5110467;27;20388;-69
2022/07/22 01:38:13;;;;;;;6.23;5.67;;;19.60;99.90;21.00;97111.00;;;;5117859;27;20453;-67
2022/07/22 01:41:02;;;;;;;8.50;5.70;;;19.60;99.90;21.10;97107.00;;;;5123235;27;20195;-66
2022/07/22 01:43:51;;;;;;;6.43;5.83;;;19.60;99.90;21.00;97103.00;;;;5117556;27;20199;-66
2022/07/22 01:46:40;;;;;;;6.30;5.70;;;19.60;99.90;20.80;97107.00;;;;5110627;27;20709;-66
2022/07/22 01:49:28;;;;;;;8.00;5.87;;;19.60;99.90;20.90;97118.00;;;;5121179;27;20195;-69
2022/07/22 01:52:17;;;;;;;7.83;6.97;;;19.50;99.90;20.80;97119.00;;;;5111321;27;20236;-64
2022/07/22 01:55:09;;;;;;;7.93;7.13;;;19.50;99.90;20.80;97115.00;;;;5122562;27;20594;-68
2022/07/22 01:57:58;;;;;;;7.27;6.40;;;19.50;99.90;20.70;97122.00;;;;5113403;27;20206;-66
2022/07/22 02:00:47;;;;;;;7.63;6.30;;;19.40;99.90;20.80;97116.00;;;;5114272;27;20210;-67
2022/07/22 02:03:36;;;;;;;6.77;5.80;;;19.50;99.90;20.70;97111.00;;;;5110937;27;20210;-67
2022/07/22 02:06:25;;;;;;;12.33;6.60;;;19.40;99.90;20.90;97121.00;;;;5120072;27;20228;-65
2022/07/22 02:09:14;;;;;;;7.20;6.60;;;19.40;99.90;20.90;97120.00;;;;5109796;27;20198;-67
2022/07/22 02:12:04;;;;;;;7.13;6.40;;;19.40;99.90;20.70;97111.00;;;;5121277;27;20595;-68
2022/07/22 02:14:53;;;;;;;7.87;7.07;;;19.40;99.90;20.90;97109.00;;;;5111022;27;20229;-66
2022/07/22 02:17:42;;;;;;;7.30;6.50;;;19.50;99.90;20.80;97101.00;;;;5110345;27;20245;-68
2022/07/22 02:20:30;;;;;;;10.30;7.00;;;19.50;99.90;20.50;97109.00;;;;5112462;27;20195;-67
2022/07/22 02:23:19;;;;;;;7.83;7.03;;;19.40;99.90;20.10;97103.00;;;;5110552;27;20573;-66
2022/07/22 02:26:09;;;;;;;8.03;7.13;;;19.30;99.90;20.60;97109.00;;;;5108926;27;20238;-68
2022/07/22 02:28:59;;;;;;;9.27;7.63;;;19.30;99.90;20.70;97108.00;;;;5118394;27;20551;-68
2022/07/22 02:31:48;;;;;;;9.37;7.53;;;19.30;99.90;20.20;97115.00;;;;5110337;27;20194;-68
2022/07/22 02:34:37;;;;;;;7.57;6.87;;;19.30;99.90;19.80;97108.00;;;;5110113;28;20676;-69
2022/07/22 02:37:26;;;;;;;7.47;6.77;;;19.20;99.90;20.20;97116.00;;;;5113070;27;20222;-69
2022/07/22 02:40:14;;;;;;;8.53;7.47;;;19.10;99.90;20.10;97111.00;;;;5110462;27;20207;-66
2022/07/22 02:43:06;;;;;;;8.00;6.77;;;19.10;99.90;20.30;97120.00;;;;5116905;27;20582;-69
2022/07/22 02:45:56;;;;;;;8.30;7.50;;;19.10;99.90;20.40;97126.00;;;;5110942;27;20198;-67
2022/07/22 02:48:44;;;;;;;9.93;7.80;;;19.10;99.90;20.60;97108.00;;;;5119423;27;20230;-68
2022/07/22 02:51:33;;;;;;;11.53;8.70;;;19.20;99.90;20.70;97110.00;;;;5115573;27;20681;-67
2022/07/22 02:54:22;;;;;;;8.67;7.77;;;19.20;99.90;20.30;97110.00;;;;5121262;27;20218;-67
2022/07/22 02:57:11;;;;;;;8.53;7.70;;;19.20;99.90;20.40;97116.00;;;;5108577;27;20229;-68
2022/07/22 02:59:59;;;;;;;9.77;7.77;;;19.20;99.90;20.40;97116.00;;;;5110521;27;20195;-68
2022/07/22 03:02:49;;;;;;;8.00;7.20;;;19.20;99.90;20.60;97117.00;;;;5113592;27;20198;-68
2022/07/22 03:05:38;;;;;;;8.97;7.57;;;19.20;99.90;20.70;97114.00;;;;5111711;27;20670;-68
2022/07/22 03:08:27;;;;;;;9.60;7.60;;;19.20;99.90;20.70;97118.00;;;;5110417;28;20837;-67
2022/07/22 03:11:16;;;;;;;9.23;8.13;;;19.30;99.90;20.40;97121.00;;;;5122927;28;20190;-66
2022/07/22 03:14:04;;;;;;;9.43;7.47;;;19.30;99.90;20.40;97129.00;;;;5125201;28;20194;-67
2022/07/22 03:16:53;;;;;;;11.80;8.80;;;19.20;99.90;20.10;97124.00;;;;5109539;28;20261;-68
2022/07/22 03:19:43;;;;;;;11.27;7.83;;;19.10;99.90;20.20;97135.00;;;;5111636;28;20203;-67
2022/07/22 03:22:32;;;;;;;11.73;8.87;;;19.00;99.90;20.40;97137.00;;;;5120934;28;20576;-67
2022/07/22 03:25:21;;;;;;;12.60;8.23;;;19.00;99.90;20.30;97140.00;;;;5114588;28;20221;-68
2022/07/22 03:28:10;;;;;;;10.47;8.13;;;19.00;99.90;19.90;97134.00;;;;5120328;28;20221;-67
2022/07/22 03:30:58;;;;;;;10.53;8.83;;;19.00;99.90;19.40;97138.00;;;;5112001;28;20282;-68
2022/07/22 03:33:47;;;;;;;9.50;8.60;;;18.80;99.90;19.30;97132.00;;;;5109147;28;20730;-67
2022/07/22 03:36:37;;;;;;;10.65;9.55;;;18.70;99.90;19.20;97130.00;;;;5106825;28;20392;-67
2022/07/22 03:39:26;;;;;;;11.07;8.47;;;18.50;99.90;19.40;97150.00;;;;5120555;28;20198;-66
2022/07/22 03:42:15;;;;;;;11.57;8.97;;;18.50;99.90;19.70;97139.00;;;;5120350;28;20202;-69
2022/07/22 03:45:05;;;;;;;13.37;7.90;;;18.50;99.90;19.60;97135.00;;;;5119603;28;21001;-69
2022/07/22 03:47:54;;;;;;;11.00;9.17;;;18.50;99.90;19.60;97145.00;;;;5118394;28;20229;-69
2022/07/22 03:50:43;;;;;;;9.03;8.13;;;18.50;99.90;19.90;97144.00;;;;5110500;28;20236;-67
2022/07/22 03:53:33;;;;;;;14.47;9.80;;;18.60;99.90;19.70;97144.00;;;;5116300;27;20210;-69
2022/07/22 03:56:22;;;;;;;13.00;10.17;;;18.60;99.90;19.80;97153.00;;;;5117621;27;20191;-68
2022/07/22 03:59:11;;;;;;;10.87;9.77;;;18.60;99.90;20.20;97153.00;;;;5120959;28;20206;-66
2022/07/22 04:01:59;;;;;;;10.57;9.50;;;18.70;99.90;20.10;97154.00;;;;5111209;28;20562;-68
2022/07/22 04:04:48;;;;;;;13.43;9.77;;;18.80;99.90;20.10;97157.00;;;;5121698;28;20580;-68
2022/07/22 04:07:37;;;;;;;10.60;8.47;;;18.80;99.90;20.20;97153.00;;;;5113816;28;20225;-67
2022/07/22 04:10:27;;;;;;;10.93;9.27;;;18.80;99.90;20.10;97158.00;;;;5123675;27;20198;-68
2022/07/22 04:13:16;;;;;;;10.70;8.73;;;18.80;99.90;20.20;97159.00;;;;5121328;27;20181;-68
2022/07/22 04:16:05;;;;;;;14.37;10.03;;;18.90;99.90;20.30;97163.00;;;;5112478;28;20202;-66
2022/07/22 04:18:54;;;;;;;14.80;9.80;;;18.90;99.90;20.50;97159.00;;;;5116150;28;20669;-68
2022/07/22 04:21:43;;;;;;;14.43;9.57;;;19.00;99.90;20.00;97155.00;;;;5106759;28;20214;-67
2022/07/22 04:24:32;;;;;;;11.33;10.17;;;19.00;99.90;20.10;97155.00;;;;5109554;28;20700;-67
2022/07/22 04:27:23;;;;;;;12.97;10.00;;;19.00;99.90;20.10;97168.00;;;;5111193;27;21107;-67
2022/07/22 04:30:13;;;;;;;10.57;8.87;;;19.00;99.90;20.20;97169.00;;;;5123986;27;20203;-69
2022/07/22 04:33:02;;;;;;;13.43;9.20;;;19.00;99.90;20.50;97170.00;;;;5126826;27;20593;-68
2022/07/22 04:35:50;;;;;;;12.80;10.20;;;19.10;99.90;20.80;97171.00;;;;5110776;28;20199;-68
2022/07/22 04:38:39;;;;;;;11.17;9.07;;;19.20;99.90;20.50;97170.00;;;;5110404;28;20221;-69
2022/07/22 04:41:28;;;;;;;12.57;9.23;;;19.20;99.90;20.40;97164.00;;;;5117811;27;20786;-68
2022/07/22 04:44:18;;;;;;;10.77;9.67;;;19.20;99.90;20.60;97170.00;;;;5119475;27;20202;-68
2022/07/22 04:47:07;;;;;;;10.63;9.47;;;19.30;99.90;20.50;97170.00;;;;5123157;27;20227;-68
2022/07/22 04:49:56;;;;;;;10.37;9.33;;;19.30;99.90;20.40;97171.00;;;;5128495;27;20835;-67
2022/07/22 04:52:45;;;;;;;11.50;10.13;;;19.30;99.90;20.60;97171.00;;;;5112100;27;20195;-70
2022/07/22 04:55:37;;;;;;;11.03;9.90;;;19.30;99.90;20.50;97166.00;;;;5123710;27;20211;-69
2022/07/22 04:58:26;;;;;;;11.17;9.73;;;19.30;99.90;20.60;97168.00;;;;5115901;27;20292;-69
2022/07/22 05:01:16;;;;;;;11.50;9.93;;;19.40;99.90;20.70;97162.00;;;;5116699;27;20193;-70
2022/07/22 05:04:05;;;;;;;16.10;11.03;;;19.50;99.90;20.80;97169.00;;;;5120242;27;20603;-68
2022/07/22 05:06:54;;;;;;;15.73;10.10;;;19.60;99.90;21.00;97173.00;;;;5126846;27;20230;-68
2022/07/22 05:09:43;;;;;;;11.00;9.90;;;19.70;99.90;21.30;97179.00;;;;5118402;27;20194;-70
2022/07/22 05:12:31;;;;;;;11.63;9.70;;;19.80;99.90;21.50;97177.00;;;;5118859;27;20205;-69
2022/07/22 05:15:20;;;;;;;12.83;9.93;;;19.90;99.90;21.70;97175.00;;;;5110097;28;20221;-70
2022/07/22 05:18:10;;;;;;;12.83;9.73;;;20.00;99.90;21.60;97174.00;;;;5109730;28;20226;-69
2022/07/22 05:20:59;;;;;;;12.13;9.63;;;20.20;99.90;21.60;97175.00;;;;5110196;28;20199;-69
2022/07/22 05:23:48;;;;;;;11.50;10.17;;;20.20;99.90;21.90;97178.00;;;;5117163;27;20211;-69
2022/07/22 05:26:37;;;;;;;13.00;9.90;;;20.30;99.90;21.80;97176.00;;;;5108904;28;20194;-68
2022/07/22 05:29:25;;;;;;;10.73;9.30;;;20.40;99.90;22.00;97171.00;;;;5112735;27;20226;-70
2022/07/22 05:32:14;;;;;;;12.03;9.87;;;20.50;99.90;22.10;97176.00;;;;5109608;28;20198;-69
2022/07/22 05:35:05;;;;;;;12.43;11.13;;;20.70;99.90;22.30;97180.00;;;;5117100;27;20202;-71
2022/07/22 05:37:54;;;;;;;10.97;9.87;;;20.80;99.90;22.30;97178.00;;;;5124561;27;20217;-69
2022/07/22 05:40:43;;;;;;;15.10;11.50;;;20.90;99.90;22.50;97172.00;;;;5120611;27;20194;-69
2022/07/22 05:43:31;;;;;;;15.13;11.03;;;21.00;99.90;22.50;97169.00;;;;5117419;27;20578;-72
2022/07/22 05:46:20;;;;;;;13.77;10.87;;;21.10;99.90;23.00;97170.00;;;;5117744;27;20201;-70
2022/07/22 05:49:09;;;;;;;11.80;10.57;;;21.20;99.90;23.40;97173.00;;;;5119327;27;20221;-69
2022/07/22 05:52:00;;;;;;;12.57;11.27;;;21.40;99.90;23.50;97167.00;;;;5128006;27;20212;-69
2022/07/22 05:54:49;;;;;;;10.37;9.37;;;21.60;99.90;23.40;97171.00;;;;5125187;27;20552;-70
2022/07/22 05:57:38;;;;;;;11.30;10.20;;;21.80;99.90;23.50;97174.00;;;;5115466;27;20226;-70
2022/07/22 06:00:27;;;;;;;13.37;11.97;;;21.90;99.90;23.60;97173.00;;;;5121819;27;20202;-69
2022/07/22 06:03:15;;;;;;;17.07;11.43;;;22.00;99.90;23.80;97169.00;;;;5113687;27;20217;-69
2022/07/22 06:06:08;;;;;;;13.80;11.13;;;22.10;99.90;24.00;97168.00;;;;5120136;27;20193;-69
2022/07/22 06:08:58;;;;;;;12.53;11.23;;;22.30;99.90;24.50;97177.00;;;;5113794;27;20232;-69
2022/07/22 06:11:47;;;;;;;12.47;11.17;;;22.50;99.90;24.70;97174.00;;;;5118477;27;20547;-69
2022/07/22 06:14:36;;;;;;;13.73;12.33;;;22.70;99.90;24.90;97170.00;;;;5111054;27;20202;-69
2022/07/22 06:17:25;;;;;;;15.97;12.17;;;22.90;99.90;25.10;97169.00;;;;5120034;27;20218;-69
2022/07/22 06:20:13;;;;;;;13.13;11.47;;;23.10;99.90;25.40;97174.00;;;;5118320;27;20224;-69
2022/07/22 06:23:02;;;;;;;12.57;11.17;;;23.30;99.90;25.60;97182.00;;;;5120143;27;20840;-69
2022/07/22 06:25:52;;;;;;;14.10;11.70;;;23.50;99.90;26.00;97174.00;;;;5122611;27;20198;-69
2022/07/22 06:28:41;;;;;;;16.53;11.53;;;23.70;99.90;26.20;97168.00;;;;5112802;27;20961;-69
2022/07/22 06:31:30;;;;;;;13.83;12.17;;;23.90;99.90;26.40;97165.00;;;;5116986;27;20205;-69
2022/07/22 06:34:19;;;;;;;12.50;10.70;;;24.10;99.90;26.30;97166.00;;;;5119587;27;20202;-70
2022/07/22 06:37:08;;;;;;;12.93;11.33;;;24.30;99.90;26.60;97174.00;;;;5109796;27;20218;-69
2022/07/22 06:39:57;;;;;;;15.40;11.57;;;24.50;99.90;27.00;97168.00;;;;5112265;27;20217;-69
2022/07/22 06:42:47;;;;;;;10.83;9.77;;;24.70;99.90;27.30;97165.00;;;;5118014;27;20194;-70
2022/07/22 06:45:36;;;;;;;13.47;11.27;;;24.90;99.90;27.50;97173.00;;;;5113802;27;20205;-69
2022/07/22 06:48:25;;;;;;;11.40;10.03;;;25.10;99.90;27.70;97165.00;;;;5110084;28;20631;-70
2022/07/22 06:51:14;;;;;;;14.73;10.93;;;25.30;99.90;27.70;97167.00;;;;5119512;27;20213;-71
2022/07/22 06:54:04;;;;;;;13.80;9.97;;;25.50;99.90;27.80;97163.00;;;;5119843;27;20584;-71
2022/07/22 06:56:52;;;;;;;12.70;11.40;;;25.60;99.90;28.00;97170.00;;;;5113671;27;20238;-71
2022/07/22 06:59:42;;;;;;;10.93;9.93;;;25.80;99.90;28.30;97160.00;;;;5116040;27;20207;-71
2022/07/22 07:02:31;;;;;;;13.37;10.33;;;26.00;99.90;28.40;97162.00;;;;5116903;27;20209;-71
2022/07/22 07:05:20;;;;;;;13.83;11.10;;;26.10;99.90;28.60;97168.00;;;;5120124;27;20192;-70
2022/07/22 07:08:09;;;;;;;14.13;11.30;;;26.30;99.90;28.80;97165.00;;;;5116707;27;21006;-70
2022/07/22 07:10:57;;;;;;;11.27;10.10;;;26.40;99.90;29.00;97162.00;;;;5116836;28;20196;-70
2022/07/22 07:13:46;;;;;;;12.03;9.27;;;26.60;99.90;29.20;97168.00;;;;5115296;28;20578;-70
2022/07/22 07:16:36;;;;;;;9.97;8.97;;;26.80;99.90;29.30;97158.00;;;;5117312;28;20207;-70
2022/07/22 07:19:25;;;;;;;9.80;8.93;;;26.90;99.90;29.30;97163.00;;;;5118037;28;20209;-70
2022/07/22 07:22:14;;;;;;;12.53;9.97;;;27.10;99.90;29.60;97170.00;;;;5116462;28;20591;-70
2022/07/22 07:25:05;;;;;;;10.57;9.57;;;27.20;99.90;29.70;97166.00;;;;5111400;28;20198;-70
2022/07/22 07:27:54;;;;;;;8.87;7.87;;;27.40;99.90;29.70;97160.00;;;;5121499;28;20315;-70
2022/07/22 07:30:43;;;;;;;8.83;7.13;;;27.50;99.90;29.90;97157.00;;;;5109506;28;20212;-70
2022/07/22 07:33:34;;;;;;;9.33;8.43;;;27.50;99.90;30.00;97151.00;;;;5115086;28;20215;-70
2022/07/22 07:36:23;;;;;;;9.77;7.27;;;27.70;99.90;30.20;97160.00;;;;5111248;28;20208;-70
2022/07/22 07:39:13;;;;;;;9.40;8.13;;;27.80;99.90;30.20;97158.00;;;;5122500;28;20204;-71
2022/07/22 07:42:02;;;;;;;8.53;7.40;;;27.90;99.90;30.30;97159.00;;;;5116970;28;20221;-71
2022/07/22 07:44:50;;;;;;;8.73;7.00;;;28.00;99.90;30.50;97154.00;;;;5121804;28;20202;-70
2022/07/22 07:47:39;;;;;;;10.83;7.07;;;28.10;99.90;30.50;97155.00;;;;5117644;27;20220;-70
2022/07/22 07:50:30;;;;;;;8.93;6.17;;;28.20;99.80;30.20;97151.00;;;;5118034;27;20308;-70
2022/07/22 07:53:18;;;;;;;8.40;7.50;;;28.30;98.50;30.50;97153.00;;;;5109451;28;20200;-70
2022/07/22 07:56:08;;;;;;;11.67;6.70;;;28.20;98.70;30.70;97153.00;;;;5113954;28;20580;-72
2022/07/22 07:58:56;;;;;;;7.70;6.90;;;28.40;98.50;30.60;97149.00;;;;5121830;27;20585;-71
2022/07/22 08:02:02;;;;;;;7.80;6.97;;;28.50;96.70;30.40;97149.00;;;;5122925;27;20552;-71
2022/07/22 08:04:50;;;;;;;8.00;7.23;;;28.50;95.60;30.90;97154.00;;;;5115699;27;20247;-71
2022/07/22 08:07:43;;;;;;;6.13;5.63;;;28.60;95.70;30.40;97145.00;;;;5119911;27;20218;-70
2022/07/22 08:10:32;;;;;;;7.20;6.50;;;28.60;92.70;31.00;97148.00;;;;5119538;27;20228;-71
2022/07/22 08:13:41;;;;;;;8.77;7.87;;;28.70;94.10;31.40;97153.00;;;;5117297;27;20290;-70
2022/07/22 08:16:30;;;;;;;10.53;6.63;;;28.90;94.30;31.60;97151.00;;;;5122024;27;20215;-69
2022/07/22 08:19:19;;;;;;;8.93;7.10;;;29.10;94.60;31.60;97158.00;;;;5121880;27;20672;-69
2022/07/22 08:22:08;;;;;;;7.87;7.17;;;29.20;94.10;31.70;97147.00;;;;5112151;27;20204;-71
2022/07/22 08:24:58;;;;;;;10.57;7.47;;;29.40;92.80;31.70;97153.00;;;;5110753;27;20591;-71
2022/07/22 08:27:46;;;;;;;15.03;7.07;;;29.50;92.10;31.90;97151.00;;;;5116998;27;20216;-70
2022/07/22 08:30:36;;;;;;;7.05;6.43;;;29.50;92.40;32.00;97155.00;;;;5120391;27;20232;-70
2022/07/22 08:33:24;;;;;;;9.00;8.10;;;29.60;92.00;32.00;97152.00;;;;5111847;27;20196;-69
2022/07/22 08:36:13;;;;;;;7.72;6.93;;;29.70;91.00;32.10;97150.00;;;;5127907;27;20207;-70
2022/07/22 08:39:02;;;;;;;7.97;7.20;;;29.80;91.20;32.30;97155.00;;;;5116809;27;20207;-70
2022/07/22 08:41:52;;;;;;;7.68;6.88;;;29.90;91.00;32.50;97157.00;;;;5121462;27;20212;-71
2022/07/22 08:44:41;;;;;;;9.30;7.43;;;30.10;91.00;32.40;97156.00;;;;5109528;28;20203;-71
2022/07/22 08:47:30;;;;;;;9.43;7.38;;;30.20;90.80;32.80;97149.00;;;;5112116;27;20606;-71
2022/07/22 08:50:27;;;;;;;7.72;7.03;;;30.40;89.60;32.40;97147.00;;;;5130757;27;20224;-71
2022/07/22 08:53:16;;;;;;;9.38;7.30;;;30.50;86.70;32.00;97139.00;;;;5117988;27;20587;-70
2022/07/22 08:56:06;;;;;;;10.05;6.68;;;30.50;85.10;32.60;97153.00;;;;5127582;27;20283;-70
2022/07/22 08:58:56;;;;;;;8.32;7.10;;;30.50;87.20;33.10;97147.00;;;;5113511;27;20282;-70
2022/07/22 09:02:05;;;;;;;7.93;7.00;;;30.60;86.50;33.00;97146.00;;;;5119158;27;20601;-71
2022/07/22 09:04:58;;;;;;;8.27;6.57;;;30.70;83.70;33.40;97148.00;;;;5120056;27;20202;-71
2022/07/22 09:07:51;;;;;;;7.65;7.05;;;30.90;83.80;32.20;97154.00;;;;5128097;27;20234;-72
2022/07/22 09:10:39;;;;;;;8.18;6.85;;;30.90;84.10;33.00;97142.00;;;;5115190;27;20227;-71
2022/07/22 09:13:28;;;;;;;6.78;6.13;;;30.90;82.90;33.10;97147.00;;;;5120944;27;20200;-69
2022/07/22 09:16:39;;;;;;;9.13;7.65;;;30.90;80.90;33.20;97135.00;;;;5124112;27;20201;-71
2022/07/22 09:19:33;;;;;;;7.57;6.80;;;31.00;80.10;33.20;97140.00;;;;5121807;27;20692;-70
2022/07/22 09:22:37;;;;;;;9.57;6.65;;;31.10;80.90;33.70;97149.00;;;;5114889;27;20221;-70
2022/07/22 09:25:30;;;;;;;8.55;7.13;;;31.20;81.30;33.50;97144.00;;;;5124338;27;20196;-71
2022/07/22 09:28:22;;;;;;;7.35;6.65;;;31.30;77.40;33.10;97142.00;;;;5118252;27;20231;-71
2022/07/22 09:31:31;;;;;;;7.50;6.78;;;31.20;77.90;32.90;97144.00;;;;5106381;27;20228;-71
2022/07/22 09:34:30;;;;;;;6.72;6.15;;;31.20;78.70;33.70;97132.00;;;;5120959;27;20201;-71
2022/07/22 09:37:19;;;;;;;9.80;6.82;;;31.30;77.30;33.80;97141.00;;;;5118376;27;20703;-71
2022/07/22 09:40:15;;;;;;;7.22;6.53;;;31.40;78.60;33.40;97130.00;;;;5112356;27;20213;-71
2022/07/22 09:43:11;;;;;;;7.88;6.80;;;31.50;78.10;33.40;97125.00;;;;5116902;27;20205;-72
2022/07/22 09:45:59;;;;;;;9.38;7.30;;;31.70;76.40;33.00;97126.00;;;;5116654;27;20934;-70
2022/07/22 09:48:49;;;;;;;9.05;6.80;;;31.60;73.10;32.80;97122.00;;;;5118701;27;20222;-72
2022/07/22 09:51:39;;;;;;;7.70;6.93;;;31.40;73.60;33.10;97109.00;;;;5111169;27;20230;-71
2022/07/22 09:54:29;;;;;;;11.50;7.32;;;31.40;74.00;32.40;97105.00;;;;5116196;27;20193;-71
2022/07/22 09:57:19;;;;;;;11.10;6.63;;;31.30;73.50;33.00;97113.00;;;;5111496;27;20224;-69
2022/07/22 10:00:09;;;;;;;8.82;6.28;;;31.20;76.50;33.50;97107.00;;;;5119216;27;20231;-71
2022/07/22 10:03:02;;;;;;;12.55;8.27;;;31.40;77.20;34.30;97112.00;;;;5118700;27;20226;-71
2022/07/22 10:05:52;;;;;;;7.75;6.25;;;31.60;74.90;34.80;97100.00;;;;5121193;27;20209;-71
2022/07/22 10:08:42;;;;;;;10.63;6.63;;;31.90;75.20;33.40;97098.00;;;;5126123;27;20224;-70
2022/07/22 10:11:32;;;;;;;7.60;6.70;;;32.10;70.30;33.00;97088.00;;;;5119535;27;20224;-71
2022/07/22 10:14:22;;;;;;;7.20;6.18;;;31.80;70.40;33.50;97088.00;;;;5120914;27;20207;-70
2022/07/22 10:17:11;;;;;;;7.88;7.18;;;31.70;70.50;34.80;97095.00;;;;5128478;27;20216;-70
2022/07/22 10:20:00;;;;;;;6.90;6.10;;;31.90;72.80;34.20;97097.00;;;;5121996;27;20616;-70
2022/07/22 10:22:56;;;;;;;6.25;5.75;;;32.20;72.90;35.30;97075.00;;;;5110670;27;20199;-70
2022/07/22 10:25:52;;;;;;;7.25;6.22;;;32.50;73.30;35.60;97076.00;;;;5119606;27;20198;-69
2022/07/22 10:28:41;;;;;;;7.82;6.35;;;32.90;71.10;36.30;97076.00;;;;5117473;27;20684;-69
2022/07/22 10:31:29;;;;;;;7.20;6.50;;;33.30;71.80;35.90;97077.00;;;;5117014;27;20217;-70
2022/07/22 10:34:18;;;;;;;7.40;6.60;;;33.50;68.90;34.30;97074.00;;;;5115287;27;20209;-70
2022/07/22 10:37:40;;;;;;;6.63;6.05;;;33.40;65.90;35.80;97076.00;;;;5115567;27;20233;-70
2022/07/22 10:40:32;;;;;;;6.82;6.10;;;33.40;67.40;36.30;97067.00;;;;5107795;28;20201;-69
2022/07/22 10:43:24;;;;;;;7.63;6.32;;;33.60;67.00;36.90;97052.00;;;;5107574;28;20217;-69
2022/07/22 10:46:13;;;;;;;8.15;5.63;;;33.90;65.70;36.70;97056.00;;;;5107173;28;20210;-70
2022/07/22 10:49:05;;;;;;;9.45;6.93;;;34.10;66.60;36.60;97045.00;;;;5108885;27;20589;-71
2022/07/22 10:52:16;;;;;;;6.95;5.65;;;34.20;65.20;36.90;97052.00;;;;5121169;27;20225;-70
2022/07/22 10:55:19;;;;;;;7.32;6.43;;;34.40;65.10;37.10;97039.00;;;;5114301;27;20614;-70
2022/07/22 10:58:48;;;;;;;6.18;5.63;;;34.60;64.80;37.30;97046.00;;;;5112743;27;20217;-71
2022/07/22 11:01:38;;;;;;;6.55;6.00;;;34.70;63.70;36.90;97042.00;;;;5116654;27;20202;-70
2022/07/22 11:04:29;;;;;;;6.63;5.93;;;34.80;62.30;37.80;97042.00;;;;5121766;22;20230;-77
2022/07/22 11:07:18;;;;;;;7.47;6.68;;;34.90;63.70;37.50;97032.00;;;;5095543;28;20199;-80
2022/07/22 11:10:12;;;;;;;7.13;5.95;;;35.00;60.70;36.40;97030.00;;;;5091152;28;20202;-78
2022/07/22 11:13:04;;;;;;;6.80;5.40;;;35.00;59.30;37.50;97029.00;;;;5093419;28;20202;-77
2022/07/22 11:15:54;;;;;;;7.80;5.97;;;35.00;60.00;38.40;97022.00;;;;5059465;28;20196;-78
2022/07/22 11:18:49;;;;;;;6.35;5.93;;;35.20;61.50;37.40;97026.00;;;;5064692;28;20200;-75
2022/07/22 11:21:39;;;;;;;6.68;5.97;;;35.30;61.20;37.20;97019.00;;;;5066447;28;20219;-79
2022/07/22 11:24:30;;;;;;;6.18;5.53;;;35.40;60.40;38.10;97007.00;;;;5060336;28;20219;-77
2022/07/22 11:27:21;;;;;;;9.00;6.85;;;35.50;62.20;38.50;97018.00;;;;5062800;28;20204;-79
2022/07/22 11:30:11;;;;;;;8.07;6.18;;;35.70;60.60;38.10;97013.00;;;;5070608;28;20207;-79
2022/07/22 11:33:03;;;;;;;8.88;6.32;;;35.70;59.60;38.20;97016.00;;;;5076087;28;20207;-78
2022/07/22 11:36:03;;;;;;;6.57;6.03;;;35.90;58.80;38.70;97012.00;;;;5074650;28;20217;-73
2022/07/22 11:38:52;;;;;;;8.68;6.53;;;35.90;58.80;38.40;97000.00;;;;5080019;28;20199;-75
2022/07/22 11:41:41;;;;;;;7.63;6.63;;;36.00;58.00;37.80;97001.00;;;;5069949;28;20227;-71
2022/07/22 11:44:34;;;;;;;9.25;5.78;;;36.00;57.40;37.40;96999.00;;;;5071451;28;20215;-74
2022/07/22 11:47:23;;;;;;;6.93;6.15;;;35.70;57.30;38.60;96993.00;;;;5078203;28;20206;-76
2022/07/22 11:50:13;;;;;;;6.57;5.90;;;35.80;59.00;37.80;96993.00;;;;5072681;28;20231;-75
2022/07/22 11:53:05;;;;;;;10.02;6.93;;;35.80;56.90;38.70;96984.00;;;;5076407;28;20950;-77
2022/07/22 11:55:58;;;;;;;7.13;6.43;;;35.90;57.90;39.40;96988.00;;;;5073416;28;20195;-76
2022/07/22 11:58:50;;;;;;;8.90;6.82;;;36.30;59.00;39.80;96996.00;;;;5069750;28;20210;-78
2022/07/22 12:01:40;;;;;;;7.32;6.05;;;36.60;58.70;35.40;96989.00;;;;5062584;28;20956;-78
2022/07/22 12:04:33;;;;;;;8.13;5.93;;;36.10;54.70;35.20;96975.00;;;;5067695;28;20234;-79
2022/07/22 12:07:23;;;;;;;6.75;5.95;;;35.30;56.20;35.90;96973.00;;;;5067332;28;20228;-74
2022/07/22 12:10:12;;;;;;;6.63;5.90;;;34.80;56.90;33.60;96959.00;;;;5064466;28;20199;-73
2022/07/22 12:13:01;;;;;;;7.20;6.57;;;34.00;57.40;34.40;96964.00;;;;5067271;28;20208;-77
2022/07/22 12:15:50;;;;;;;7.00;6.50;;;33.60;58.70;33.90;96963.00;;;;5075084;28;20207;-72
2022/07/22 12:18:41;;;;;;;11.82;7.20;;;33.40;58.50;35.60;96961.00;;;;5070754;28;20203;-77
2022/07/22 12:21:33;;;;;;;7.55;6.18;;;33.40;59.20;37.30;96959.00;;;;5070459;28;20692;-76
2022/07/22 12:24:32;;;;;;;7.20;6.00;;;33.90;59.30;36.70;96959.00;;;;5072903;28;20284;-81
2022/07/22 12:27:21;;;;;;;5.68;5.18;;;34.30;58.70;38.00;96953.00;;;;5069998;28;20195;-75
2022/07/22 12:30:14;;;;;;;5.82;4.97;;;34.80;58.50;39.40;96939.00;;;;5073121;28;20200;-74
2022/07/22 12:33:03;;;;;;;6.40;5.88;;;35.50;59.10;40.10;96940.00;;;;5063725;28;20208;-75